sensor_id;sensor_type;location;lat;lon;timestamp;P1;durP1;ratioP1;P2;durP2;ratioP2
41434;SDS011;27177;22.262;114.192;2023-01-24T00:00:20;11.23;;;6.80;;
41434;SDS011;27177;22.262;114.192;2023-01-24T00:02:46;8.27;;;5.90;;
41434;SDS011;27177;22.262;114.192;2023-01-24T00:05:13;8.43;;;6.20;;
41434;SDS011;27177;22.262;114.192;2023-01-24T00:07:40;10.77;;;6.50;;
41434;SDS011;27177;22.262;114.192;2023-01-24T00:10:09;9.38;;;5.88;;
41434;SDS011;27177;22.262;114.192;2023-01-24T00:12:37;12.35;;;6.22;;
41434;SDS011;27177;22.262;114.192;2023-01-24T00:15:04;10.60;;;6.90;;
41434;SDS011;27177;22.262;114.192;2023-01-24T00:17:32;8.88;;;6.35;;
41434;SDS011;27177;22.262;114.192;2023-01-24T00:19:59;9.70;;;6.55;;
41434;SDS011;27177;22.262;114.192;2023-01-24T00:22:26;12.93;;;6.68;;
41434;SDS011;27177;22.262;114.192;2023-01-24T00:24:53;12.20;;;6.57;;
41434;SDS011;27177;22.262;114.192;2023-01-24T00:27:20;10.90;;;6.60;;
41434;SDS011;27177;22.262;114.192;2023-01-24T00:29:47;12.82;;;6.53;;
41434;SDS011;27177;22.262;114.192;2023-01-24T00:32:13;10.32;;;7.07;;
41434;SDS011;27177;22.262;114.192;2023-01-24T00:34:40;11.65;;;6.35;;
41434;SDS011;27177;22.262;114.192;2023-01-24T00:37:07;11.18;;;6.47;;
41434;SDS011;27177;22.262;114.192;2023-01-24T00:39:33;11.10;;;6.38;;
41434;SDS011;27177;22.262;114.192;2023-01-24T00:42:00;11.40;;;7.13;;
41434;SDS011;27177;22.262;114.192;2023-01-24T00:44:27;11.27;;;6.20;;
41434;SDS011;27177;22.262;114.192;2023-01-24T00:46:54;11.85;;;7.05;;
41434;SDS011;27177;22.262;114.192;2023-01-24T00:49:21;11.70;;;7.15;;
41434;SDS011;27177;22.262;114.192;2023-01-24T00:51:48;9.88;;;7.10;;
41434;SDS011;27177;22.262;114.192;2023-01-24T00:54:17;9.02;;;6.03;;
41434;SDS011;27177;22.262;114.192;2023-01-24T00:56:44;10.95;;;6.68;;
41434;SDS011;27177;22.262;114.192;2023-01-24T00:59:13;11.65;;;7.03;;
41434;SDS011;27177;22.262;114.192;2023-01-24T01:01:40;11.98;;;6.32;;
41434;SDS011;27177;22.262;114.192;2023-01-24T01:04:07;12.45;;;7.10;;
41434;SDS011;27177;22.262;114.192;2023-01-24T01:06:34;10.27;;;6.75;;
41434;SDS011;27177;22.262;114.192;2023-01-24T01:09:01;9.45;;;6.70;;
41434;SDS011;27177;22.262;114.192;2023-01-24T01:11:29;11.93;;;7.20;;
41434;SDS011;27177;22.262;114.192;2023-01-24T01:13:56;10.00;;;6.50;;
41434;SDS011;27177;22.262;114.192;2023-01-24T01:16:23;11.98;;;6.43;;
41434;SDS011;27177;22.262;114.192;2023-01-24T01:18:52;9.90;;;6.50;;
41434;SDS011;27177;22.262;114.192;2023-01-24T01:21:22;11.13;;;7.18;;
41434;SDS011;27177;22.262;114.192;2023-01-24T01:23:49;10.85;;;6.50;;
41434;SDS011;27177;22.262;114.192;2023-01-24T01:28:43;8.32;;;6.03;;
41434;SDS011;27177;22.262;114.192;2023-01-24T01:31:11;11.90;;;5.90;;
41434;SDS011;27177;22.262;114.192;2023-01-24T01:33:38;11.63;;;6.47;;
41434;SDS011;27177;22.262;114.192;2023-01-24T01:36:05;9.10;;;6.20;;
41434;SDS011;27177;22.262;114.192;2023-01-24T01:38:33;9.88;;;6.07;;
41434;SDS011;27177;22.262;114.192;2023-01-24T01:41:02;9.77;;;6.38;;
41434;SDS011;27177;22.262;114.192;2023-01-24T01:43:30;10.30;;;5.88;;
41434;SDS011;27177;22.262;114.192;2023-01-24T01:51:16;9.35;;;5.60;;
41434;SDS011;27177;22.262;114.192;2023-01-24T01:54:01;13.75;;;5.47;;
41434;SDS011;27177;22.262;114.192;2023-01-24T01:56:35;9.45;;;5.07;;
41434;SDS011;27177;22.262;114.192;2023-01-24T01:59:09;16.38;;;5.35;;
41434;SDS011;27177;22.262;114.192;2023-01-24T02:01:42;8.00;;;5.03;;
41434;SDS011;27177;22.262;114.192;2023-01-24T02:04:19;8.35;;;5.30;;
41434;SDS011;27177;22.262;114.192;2023-01-24T02:07:01;7.97;;;4.70;;
41434;SDS011;27177;22.262;114.192;2023-01-24T02:09:44;6.90;;;4.90;;
41434;SDS011;27177;22.262;114.192;2023-01-24T02:12:24;7.55;;;4.30;;
41434;SDS011;27177;22.262;114.192;2023-01-24T02:15:01;7.40;;;4.40;;
41434;SDS011;27177;22.262;114.192;2023-01-24T02:17:49;7.68;;;4.65;;
41434;SDS011;27177;22.262;114.192;2023-01-24T02:20:21;7.97;;;4.65;;
41434;SDS011;27177;22.262;114.192;2023-01-24T02:23:10;6.60;;;4.63;;
41434;SDS011;27177;22.262;114.192;2023-01-24T02:31:26;7.18;;;4.40;;
41434;SDS011;27177;22.262;114.192;2023-01-24T02:33:53;6.95;;;4.43;;
41434;SDS011;27177;22.262;114.192;2023-01-24T02:39:07;7.88;;;4.10;;
41434;SDS011;27177;22.262;114.192;2023-01-24T02:41:45;9.73;;;4.60;;
41434;SDS011;27177;22.262;114.192;2023-01-24T02:44:20;7.40;;;4.38;;
41434;SDS011;27177;22.262;114.192;2023-01-24T02:47:06;7.15;;;4.75;;
41434;SDS011;27177;22.262;114.192;2023-01-24T02:49:32;8.07;;;4.25;;
41434;SDS011;27177;22.262;114.192;2023-01-24T02:52:01;9.80;;;4.90;;
41434;SDS011;27177;22.262;114.192;2023-01-24T02:54:47;6.85;;;4.43;;
41434;SDS011;27177;22.262;114.192;2023-01-24T02:57:14;8.05;;;4.32;;
41434;SDS011;27177;22.262;114.192;2023-01-24T02:59:58;5.75;;;3.50;;
41434;SDS011;27177;22.262;114.192;2023-01-24T03:02:25;7.53;;;4.68;;
41434;SDS011;27177;22.262;114.192;2023-01-24T03:04:53;8.25;;;3.70;;
41434;SDS011;27177;22.262;114.192;2023-01-24T03:07:20;6.05;;;3.67;;
41434;SDS011;27177;22.262;114.192;2023-01-24T03:09:46;6.15;;;3.72;;
41434;SDS011;27177;22.262;114.192;2023-01-24T03:12:13;7.97;;;3.95;;
41434;SDS011;27177;22.262;114.192;2023-01-24T03:14:59;7.00;;;3.80;;
41434;SDS011;27177;22.262;114.192;2023-01-24T03:17:44;7.75;;;4.43;;
41434;SDS011;27177;22.262;114.192;2023-01-24T03:20:28;6.63;;;4.10;;
41434;SDS011;27177;22.262;114.192;2023-01-24T03:23:15;7.57;;;3.80;;
41434;SDS011;27177;22.262;114.192;2023-01-24T03:26:00;5.68;;;3.50;;
41434;SDS011;27177;22.262;114.192;2023-01-24T03:28:45;4.97;;;3.38;;
41434;SDS011;27177;22.262;114.192;2023-01-24T03:31:32;7.55;;;4.25;;
41434;SDS011;27177;22.262;114.192;2023-01-24T03:34:16;5.15;;;3.47;;
41434;SDS011;27177;22.262;114.192;2023-01-24T03:36:59;5.13;;;3.13;;
41434;SDS011;27177;22.262;114.192;2023-01-24T03:39:26;5.20;;;3.35;;
41434;SDS011;27177;22.262;114.192;2023-01-24T03:42:11;6.43;;;3.70;;
41434;SDS011;27177;22.262;114.192;2023-01-24T03:44:38;7.85;;;3.28;;
41434;SDS011;27177;22.262;114.192;2023-01-24T03:47:04;5.20;;;3.15;;
41434;SDS011;27177;22.262;114.192;2023-01-24T03:49:31;6.53;;;3.35;;
41434;SDS011;27177;22.262;114.192;2023-01-24T03:52:16;7.45;;;3.28;;
41434;SDS011;27177;22.262;114.192;2023-01-24T03:54:55;5.05;;;3.55;;
41434;SDS011;27177;22.262;114.192;2023-01-24T03:57:23;9.68;;;3.35;;
41434;SDS011;27177;22.262;114.192;2023-01-24T03:59:55;5.32;;;2.97;;
41434;SDS011;27177;22.262;114.192;2023-01-24T04:02:22;4.63;;;3.05;;
41434;SDS011;27177;22.262;114.192;2023-01-24T04:04:49;4.93;;;3.10;;
41434;SDS011;27177;22.262;114.192;2023-01-24T04:07:34;5.05;;;3.25;;
41434;SDS011;27177;22.262;114.192;2023-01-24T04:10:03;7.82;;;4.10;;
41434;SDS011;27177;22.262;114.192;2023-01-24T04:12:33;5.32;;;3.30;;
41434;SDS011;27177;22.262;114.192;2023-01-24T04:15:00;7.15;;;3.03;;
41434;SDS011;27177;22.262;114.192;2023-01-24T04:17:27;7.45;;;3.58;;
41434;SDS011;27177;22.262;114.192;2023-01-24T04:19:54;5.53;;;3.20;;
41434;SDS011;27177;22.262;114.192;2023-01-24T04:22:22;6.93;;;3.35;;
41434;SDS011;27177;22.262;114.192;2023-01-24T04:24:49;7.22;;;2.92;;
41434;SDS011;27177;22.262;114.192;2023-01-24T04:27:16;5.07;;;3.35;;
41434;SDS011;27177;22.262;114.192;2023-01-24T04:29:43;5.13;;;2.80;;
41434;SDS011;27177;22.262;114.192;2023-01-24T04:32:09;5.03;;;3.50;;
41434;SDS011;27177;22.262;114.192;2023-01-24T04:34:36;5.35;;;3.63;;
41434;SDS011;27177;22.262;114.192;2023-01-24T04:37:03;5.50;;;3.80;;
41434;SDS011;27177;22.262;114.192;2023-01-24T04:39:30;5.85;;;3.28;;
41434;SDS011;27177;22.262;114.192;2023-01-24T04:41:58;6.50;;;4.13;;
41434;SDS011;27177;22.262;114.192;2023-01-24T04:44:25;5.60;;;3.92;;
41434;SDS011;27177;22.262;114.192;2023-01-24T04:46:54;7.60;;;3.33;;
41434;SDS011;27177;22.262;114.192;2023-01-24T04:49:21;10.80;;;3.90;;
41434;SDS011;27177;22.262;114.192;2023-01-24T04:51:48;5.47;;;3.55;;
41434;SDS011;27177;22.262;114.192;2023-01-24T04:54:15;6.72;;;3.70;;
41434;SDS011;27177;22.262;114.192;2023-01-24T04:56:43;8.30;;;3.38;;
41434;SDS011;27177;22.262;114.192;2023-01-24T04:59:13;5.25;;;3.30;;
41434;SDS011;27177;22.262;114.192;2023-01-24T05:01:39;4.97;;;3.20;;
41434;SDS011;27177;22.262;114.192;2023-01-24T05:04:06;5.03;;;3.15;;
41434;SDS011;27177;22.262;114.192;2023-01-24T05:06:33;4.47;;;3.13;;
41434;SDS011;27177;22.262;114.192;2023-01-24T05:09:00;7.07;;;3.13;;
41434;SDS011;27177;22.262;114.192;2023-01-24T05:11:27;7.25;;;3.17;;
41434;SDS011;27177;22.262;114.192;2023-01-24T05:13:56;5.07;;;3.25;;
41434;SDS011;27177;22.262;114.192;2023-01-24T05:16:24;6.72;;;3.65;;
41434;SDS011;27177;22.262;114.192;2023-01-24T05:21:25;5.85;;;3.72;;
41434;SDS011;27177;22.262;114.192;2023-01-24T05:23:52;7.00;;;3.72;;
41434;SDS011;27177;22.262;114.192;2023-01-24T05:26:20;7.40;;;3.60;;
41434;SDS011;27177;22.262;114.192;2023-01-24T05:28:48;11.43;;;4.82;;
41434;SDS011;27177;22.262;114.192;2023-01-24T05:31:16;5.53;;;3.72;;
41434;SDS011;27177;22.262;114.192;2023-01-24T05:33:43;5.82;;;3.90;;
41434;SDS011;27177;22.262;114.192;2023-01-24T05:36:11;6.93;;;3.60;;
41434;SDS011;27177;22.262;114.192;2023-01-24T05:38:40;6.47;;;3.90;;
41434;SDS011;27177;22.262;114.192;2023-01-24T05:41:09;7.63;;;4.40;;
41434;SDS011;27177;22.262;114.192;2023-01-24T05:43:38;6.40;;;3.80;;
41434;SDS011;27177;22.262;114.192;2023-01-24T05:48:37;18.98;;;6.28;;
41434;SDS011;27177;22.262;114.192;2023-01-24T05:51:07;5.88;;;3.95;;
41434;SDS011;27177;22.262;114.192;2023-01-24T05:53:36;7.13;;;3.80;;
41434;SDS011;27177;22.262;114.192;2023-01-24T05:56:09;6.72;;;3.92;;
41434;SDS011;27177;22.262;114.192;2023-01-24T05:58:44;8.02;;;3.70;;
41434;SDS011;27177;22.262;114.192;2023-01-24T06:01:15;6.75;;;4.20;;
41434;SDS011;27177;22.262;114.192;2023-01-24T06:03:44;6.50;;;3.90;;
41434;SDS011;27177;22.262;114.192;2023-01-24T06:06:14;9.60;;;4.20;;
41434;SDS011;27177;22.262;114.192;2023-01-24T06:08:44;7.20;;;3.83;;
41434;SDS011;27177;22.262;114.192;2023-01-24T06:11:13;8.60;;;4.35;;
41434;SDS011;27177;22.262;114.192;2023-01-24T06:13:53;8.00;;;4.47;;
41434;SDS011;27177;22.262;114.192;2023-01-24T06:16:21;11.63;;;4.68;;
41434;SDS011;27177;22.262;114.192;2023-01-24T06:18:49;7.70;;;4.55;;
41434;SDS011;27177;22.262;114.192;2023-01-24T06:23:58;8.43;;;4.90;;
41434;SDS011;27177;22.262;114.192;2023-01-24T06:26:25;5.60;;;4.00;;
41434;SDS011;27177;22.262;114.192;2023-01-24T06:28:52;9.75;;;4.97;;
41434;SDS011;27177;22.262;114.192;2023-01-24T06:45:07;7.05;;;5.13;;
41434;SDS011;27177;22.262;114.192;2023-01-24T06:47:35;7.13;;;4.82;;
41434;SDS011;27177;22.262;114.192;2023-01-24T06:50:02;7.15;;;5.45;;
41434;SDS011;27177;22.262;114.192;2023-01-24T06:52:34;7.72;;;5.10;;
41434;SDS011;27177;22.262;114.192;2023-01-24T06:55:01;8.98;;;5.30;;
41434;SDS011;27177;22.262;114.192;2023-01-24T06:57:28;10.30;;;5.15;;
41434;SDS011;27177;22.262;114.192;2023-01-24T07:02:58;12.27;;;5.95;;
41434;SDS011;27177;22.262;114.192;2023-01-24T07:26:08;11.05;;;6.32;;
41434;SDS011;27177;22.262;114.192;2023-01-24T07:28:38;7.95;;;5.72;;
41434;SDS011;27177;22.262;114.192;2023-01-24T07:33:40;12.52;;;6.57;;
41434;SDS011;27177;22.262;114.192;2023-01-24T07:38:43;11.15;;;6.85;;
41434;SDS011;27177;22.262;114.192;2023-01-24T07:41:10;10.75;;;6.03;;
41434;SDS011;27177;22.262;114.192;2023-01-24T07:43:37;11.32;;;7.18;;
41434;SDS011;27177;22.262;114.192;2023-01-24T07:46:04;11.25;;;7.07;;
41434;SDS011;27177;22.262;114.192;2023-01-24T07:51:07;13.35;;;7.18;;
41434;SDS011;27177;22.262;114.192;2023-01-24T07:53:34;11.88;;;6.70;;
41434;SDS011;27177;22.262;114.192;2023-01-24T07:58:37;9.05;;;6.50;;
41434;SDS011;27177;22.262;114.192;2023-01-24T08:04:05;10.82;;;7.28;;
41434;SDS011;27177;22.262;114.192;2023-01-24T08:16:53;13.35;;;7.70;;
41434;SDS011;27177;22.262;114.192;2023-01-24T08:19:20;13.80;;;8.20;;
41434;SDS011;27177;22.262;114.192;2023-01-24T08:27:25;12.93;;;7.35;;
41434;SDS011;27177;22.262;114.192;2023-01-24T08:37:43;13.63;;;6.85;;
41434;SDS011;27177;22.262;114.192;2023-01-24T08:40:10;11.90;;;7.10;;
41434;SDS011;27177;22.262;114.192;2023-01-24T08:42:37;11.38;;;7.20;;
41434;SDS011;27177;22.262;114.192;2023-01-24T08:45:04;14.07;;;7.57;;
41434;SDS011;27177;22.262;114.192;2023-01-24T08:47:31;12.85;;;7.72;;
41434;SDS011;27177;22.262;114.192;2023-01-24T08:52:33;14.60;;;8.13;;
41434;SDS011;27177;22.262;114.192;2023-01-24T08:57:37;13.88;;;8.43;;
41434;SDS011;27177;22.262;114.192;2023-01-24T09:02:40;16.73;;;8.55;;
41434;SDS011;27177;22.262;114.192;2023-01-24T09:05:07;13.25;;;7.78;;
41434;SDS011;27177;22.262;114.192;2023-01-24T09:07:35;15.27;;;7.90;;
41434;SDS011;27177;22.262;114.192;2023-01-24T09:22:53;19.23;;;8.85;;
41434;SDS011;27177;22.262;114.192;2023-01-24T09:30:31;19.63;;;10.02;;
41434;SDS011;27177;22.262;114.192;2023-01-24T09:38:08;13.88;;;8.38;;
41434;SDS011;27177;22.262;114.192;2023-01-24T09:40:41;25.92;;;10.40;;
41434;SDS011;27177;22.262;114.192;2023-01-24T09:51:45;23.08;;;10.25;;
41434;SDS011;27177;22.262;114.192;2023-01-24T09:54:20;19.40;;;10.10;;
41434;SDS011;27177;22.262;114.192;2023-01-24T10:19:28;26.75;;;11.18;;
41434;SDS011;27177;22.262;114.192;2023-01-24T10:22:39;19.63;;;11.00;;
41434;SDS011;27177;22.262;114.192;2023-01-24T10:31:03;19.52;;;11.38;;
41434;SDS011;27177;22.262;114.192;2023-01-24T10:54:44;28.98;;;12.70;;
41434;SDS011;27177;22.262;114.192;2023-01-24T11:00:17;29.88;;;15.43;;
41434;SDS011;27177;22.262;114.192;2023-01-24T11:02:55;28.10;;;15.27;;
41434;SDS011;27177;22.262;114.192;2023-01-24T11:05:24;23.40;;;14.23;;
41434;SDS011;27177;22.262;114.192;2023-01-24T11:08:00;27.83;;;14.75;;
41434;SDS011;27177;22.262;114.192;2023-01-24T11:10:36;30.23;;;14.80;;
41434;SDS011;27177;22.262;114.192;2023-01-24T11:15:52;29.60;;;15.73;;
41434;SDS011;27177;22.262;114.192;2023-01-24T11:18:26;27.92;;;13.77;;
41434;SDS011;27177;22.262;114.192;2023-01-24T11:21:04;38.03;;;17.30;;
41434;SDS011;27177;22.262;114.192;2023-01-24T11:23:31;34.38;;;15.90;;
41434;SDS011;27177;22.262;114.192;2023-01-24T11:25:59;38.90;;;17.58;;
41434;SDS011;27177;22.262;114.192;2023-01-24T11:28:28;38.30;;;19.08;;
41434;SDS011;27177;22.262;114.192;2023-01-24T11:31:04;34.67;;;17.58;;
41434;SDS011;27177;22.262;114.192;2023-01-24T11:48:19;35.78;;;19.10;;
41434;SDS011;27177;22.262;114.192;2023-01-24T11:51:09;32.38;;;18.17;;
41434;SDS011;27177;22.262;114.192;2023-01-24T12:04:40;42.60;;;21.35;;
41434;SDS011;27177;22.262;114.192;2023-01-24T12:07:22;37.65;;;19.48;;
41434;SDS011;27177;22.262;114.192;2023-01-24T12:10:02;37.75;;;20.52;;
41434;SDS011;27177;22.262;114.192;2023-01-24T12:24:27;39.30;;;22.42;;
41434;SDS011;27177;22.262;114.192;2023-01-24T12:26:59;43.80;;;19.52;;
41434;SDS011;27177;22.262;114.192;2023-01-24T12:35:01;38.00;;;20.35;;
41434;SDS011;27177;22.262;114.192;2023-01-24T12:45:38;46.40;;;22.27;;
41434;SDS011;27177;22.262;114.192;2023-01-24T12:55:52;43.22;;;22.15;;
41434;SDS011;27177;22.262;114.192;2023-01-24T12:58:43;45.55;;;22.67;;
41434;SDS011;27177;22.262;114.192;2023-01-24T13:19:36;44.58;;;22.95;;
41434;SDS011;27177;22.262;114.192;2023-01-24T13:32:42;42.03;;;22.58;;
41434;SDS011;27177;22.262;114.192;2023-01-24T13:56:13;47.80;;;23.05;;
41434;SDS011;27177;22.262;114.192;2023-01-24T14:14:35;44.95;;;23.25;;
41434;SDS011;27177;22.262;114.192;2023-01-24T14:22:31;44.08;;;22.08;;
41434;SDS011;27177;22.262;114.192;2023-01-24T14:25:24;44.38;;;22.10;;
41434;SDS011;27177;22.262;114.192;2023-01-24T14:27:38;50.55;;;22.13;;
41434;SDS011;27177;22.262;114.192;2023-01-24T14:30:30;43.40;;;22.25;;
41434;SDS011;27177;22.262;114.192;2023-01-24T14:35:29;41.30;;;21.20;;
41434;SDS011;27177;22.262;114.192;2023-01-24T14:38:17;42.05;;;21.98;;
41434;SDS011;27177;22.262;114.192;2023-01-24T14:40:53;41.53;;;22.13;;
41434;SDS011;27177;22.262;114.192;2023-01-24T14:45:56;45.28;;;20.73;;
41434;SDS011;27177;22.262;114.192;2023-01-24T14:48:23;45.17;;;20.85;;
41434;SDS011;27177;22.262;114.192;2023-01-24T14:56:01;44.25;;;21.83;;
41434;SDS011;27177;22.262;114.192;2023-01-24T15:08:57;39.47;;;21.15;;
41434;SDS011;27177;22.262;114.192;2023-01-24T15:11:31;44.92;;;21.63;;
41434;SDS011;27177;22.262;114.192;2023-01-24T15:21:46;41.30;;;21.50;;
41434;SDS011;27177;22.262;114.192;2023-01-24T15:24:19;39.53;;;19.92;;
41434;SDS011;27177;22.262;114.192;2023-01-24T15:26:56;39.58;;;20.98;;
41434;SDS011;27177;22.262;114.192;2023-01-24T15:43:21;41.08;;;20.80;;
41434;SDS011;27177;22.262;114.192;2023-01-24T16:17:26;41.83;;;20.38;;
41434;SDS011;27177;22.262;114.192;2023-01-24T16:25:11;40.75;;;18.60;;
41434;SDS011;27177;22.262;114.192;2023-01-24T16:32:47;49.63;;;19.63;;
41434;SDS011;27177;22.262;114.192;2023-01-24T16:45:39;34.72;;;17.85;;
41434;SDS011;27177;22.262;114.192;2023-01-24T16:48:09;38.13;;;19.48;;
41434;SDS011;27177;22.262;114.192;2023-01-24T16:50:37;41.55;;;19.60;;
41434;SDS011;27177;22.262;114.192;2023-01-24T16:53:05;36.03;;;16.55;;
41434;SDS011;27177;22.262;114.192;2023-01-24T16:55:32;36.72;;;17.85;;
41434;SDS011;27177;22.262;114.192;2023-01-24T16:58:08;34.17;;;19.20;;
41434;SDS011;27177;22.262;114.192;2023-01-24T17:03:09;38.03;;;17.92;;
41434;SDS011;27177;22.262;114.192;2023-01-24T17:05:38;40.05;;;18.13;;
41434;SDS011;27177;22.262;114.192;2023-01-24T17:08:05;38.05;;;19.67;;
41434;SDS011;27177;22.262;114.192;2023-01-24T17:10:34;39.67;;;17.50;;
41434;SDS011;27177;22.262;114.192;2023-01-24T17:13:01;41.10;;;18.60;;
41434;SDS011;27177;22.262;114.192;2023-01-24T17:18:06;38.78;;;17.88;;
41434;SDS011;27177;22.262;114.192;2023-01-24T17:20:33;34.80;;;18.08;;
41434;SDS011;27177;22.262;114.192;2023-01-24T17:25:36;36.05;;;19.50;;
41434;SDS011;27177;22.262;114.192;2023-01-24T17:28:05;28.58;;;17.15;;
41434;SDS011;27177;22.262;114.192;2023-01-24T17:30:32;35.53;;;18.00;;
41434;SDS011;27177;22.262;114.192;2023-01-24T17:32:59;32.03;;;16.52;;
41434;SDS011;27177;22.262;114.192;2023-01-24T17:35:25;32.88;;;17.55;;
41434;SDS011;27177;22.262;114.192;2023-01-24T17:37:52;35.03;;;17.27;;
41434;SDS011;27177;22.262;114.192;2023-01-24T17:40:19;34.80;;;17.13;;
41434;SDS011;27177;22.262;114.192;2023-01-24T17:42:48;34.55;;;17.60;;
41434;SDS011;27177;22.262;114.192;2023-01-24T17:45:15;40.08;;;18.38;;
41434;SDS011;27177;22.262;114.192;2023-01-24T17:47:42;41.20;;;17.50;;
41434;SDS011;27177;22.262;114.192;2023-01-24T17:50:08;34.50;;;18.27;;
41434;SDS011;27177;22.262;114.192;2023-01-24T17:52:35;41.17;;;18.05;;
41434;SDS011;27177;22.262;114.192;2023-01-24T17:55:02;36.00;;;18.40;;
41434;SDS011;27177;22.262;114.192;2023-01-24T17:57:29;37.75;;;17.83;;
41434;SDS011;27177;22.262;114.192;2023-01-24T17:59:56;40.97;;;16.98;;
41434;SDS011;27177;22.262;114.192;2023-01-24T18:02:23;35.08;;;16.38;;
41434;SDS011;27177;22.262;114.192;2023-01-24T18:04:51;32.10;;;16.52;;
41434;SDS011;27177;22.262;114.192;2023-01-24T18:07:19;37.75;;;16.63;;
41434;SDS011;27177;22.262;114.192;2023-01-24T18:09:46;37.72;;;17.88;;
41434;SDS011;27177;22.262;114.192;2023-01-24T18:12:13;33.75;;;18.77;;
41434;SDS011;27177;22.262;114.192;2023-01-24T18:14:39;36.38;;;18.02;;
41434;SDS011;27177;22.262;114.192;2023-01-24T18:17:08;36.28;;;17.05;;
41434;SDS011;27177;22.262;114.192;2023-01-24T18:19:34;32.83;;;16.42;;
41434;SDS011;27177;22.262;114.192;2023-01-24T18:22:01;36.25;;;16.48;;
41434;SDS011;27177;22.262;114.192;2023-01-24T18:24:28;38.85;;;17.08;;
41434;SDS011;27177;22.262;114.192;2023-01-24T18:26:55;33.83;;;17.02;;
41434;SDS011;27177;22.262;114.192;2023-01-24T18:29:22;34.95;;;16.98;;
41434;SDS011;27177;22.262;114.192;2023-01-24T18:31:48;37.38;;;17.60;;
41434;SDS011;27177;22.262;114.192;2023-01-24T18:34:15;33.03;;;16.65;;
41434;SDS011;27177;22.262;114.192;2023-01-24T18:36:42;37.25;;;18.60;;
41434;SDS011;27177;22.262;114.192;2023-01-24T18:39:08;34.92;;;17.00;;
41434;SDS011;27177;22.262;114.192;2023-01-24T18:41:35;38.55;;;17.08;;
41434;SDS011;27177;22.262;114.192;2023-01-24T18:44:02;32.72;;;17.27;;
41434;SDS011;27177;22.262;114.192;2023-01-24T18:46:29;34.20;;;17.50;;
41434;SDS011;27177;22.262;114.192;2023-01-24T18:48:55;41.20;;;18.80;;
41434;SDS011;27177;22.262;114.192;2023-01-24T18:51:22;36.38;;;17.52;;
41434;SDS011;27177;22.262;114.192;2023-01-24T18:53:51;31.45;;;17.35;;
41434;SDS011;27177;22.262;114.192;2023-01-24T18:56:18;38.70;;;16.92;;
41434;SDS011;27177;22.262;114.192;2023-01-24T18:58:45;34.17;;;16.80;;
41434;SDS011;27177;22.262;114.192;2023-01-24T19:01:16;40.22;;;16.10;;
41434;SDS011;27177;22.262;114.192;2023-01-24T19:06:11;31.98;;;16.67;;
41434;SDS011;27177;22.262;114.192;2023-01-24T19:08:38;31.70;;;16.75;;
41434;SDS011;27177;22.262;114.192;2023-01-24T19:11:10;33.88;;;16.63;;
41434;SDS011;27177;22.262;114.192;2023-01-24T19:13:38;41.78;;;18.25;;
41434;SDS011;27177;22.262;114.192;2023-01-24T19:16:07;36.90;;;16.95;;
41434;SDS011;27177;22.262;114.192;2023-01-24T19:21:08;32.97;;;16.63;;
41434;SDS011;27177;22.262;114.192;2023-01-24T19:23:37;35.63;;;16.70;;
41434;SDS011;27177;22.262;114.192;2023-01-24T19:26:05;31.85;;;16.88;;
41434;SDS011;27177;22.262;114.192;2023-01-24T19:28:32;34.67;;;18.75;;
41434;SDS011;27177;22.262;114.192;2023-01-24T19:30:59;35.45;;;16.85;;
41434;SDS011;27177;22.262;114.192;2023-01-24T19:33:26;39.10;;;17.13;;
41434;SDS011;27177;22.262;114.192;2023-01-24T19:35:56;36.65;;;15.57;;
41434;SDS011;27177;22.262;114.192;2023-01-24T19:38:23;29.58;;;16.15;;
41434;SDS011;27177;22.262;114.192;2023-01-24T19:40:53;32.42;;;16.30;;
41434;SDS011;27177;22.262;114.192;2023-01-24T19:43:19;34.33;;;16.88;;
41434;SDS011;27177;22.262;114.192;2023-01-24T19:45:46;33.10;;;17.10;;
41434;SDS011;27177;22.262;114.192;2023-01-24T19:48:14;39.28;;;17.33;;
41434;SDS011;27177;22.262;114.192;2023-01-24T19:50:41;36.67;;;17.83;;
41434;SDS011;27177;22.262;114.192;2023-01-24T19:53:08;34.85;;;16.98;;
41434;SDS011;27177;22.262;114.192;2023-01-24T19:55:35;42.45;;;17.05;;
41434;SDS011;27177;22.262;114.192;2023-01-24T19:58:04;37.10;;;16.40;;
41434;SDS011;27177;22.262;114.192;2023-01-24T20:00:32;37.10;;;18.38;;
41434;SDS011;27177;22.262;114.192;2023-01-24T20:02:59;51.72;;;18.90;;
41434;SDS011;27177;22.262;114.192;2023-01-24T20:05:27;37.90;;;17.30;;
41434;SDS011;27177;22.262;114.192;2023-01-24T20:07:55;34.35;;;17.80;;
41434;SDS011;27177;22.262;114.192;2023-01-24T20:10:25;37.67;;;17.63;;
41434;SDS011;27177;22.262;114.192;2023-01-24T20:12:52;44.95;;;18.63;;
41434;SDS011;27177;22.262;114.192;2023-01-24T20:15:21;34.67;;;17.27;;
41434;SDS011;27177;22.262;114.192;2023-01-24T20:17:49;39.35;;;17.38;;
41434;SDS011;27177;22.262;114.192;2023-01-24T20:20:16;34.58;;;17.27;;
41434;SDS011;27177;22.262;114.192;2023-01-24T20:22:45;36.15;;;17.65;;
41434;SDS011;27177;22.262;114.192;2023-01-24T20:25:14;36.13;;;19.00;;
41434;SDS011;27177;22.262;114.192;2023-01-24T20:27:40;34.63;;;17.17;;
41434;SDS011;27177;22.262;114.192;2023-01-24T20:30:07;33.42;;;17.40;;
41434;SDS011;27177;22.262;114.192;2023-01-24T20:32:34;38.67;;;18.38;;
41434;SDS011;27177;22.262;114.192;2023-01-24T20:35:01;39.58;;;17.98;;
41434;SDS011;27177;22.262;114.192;2023-01-24T20:37:30;39.28;;;18.20;;
41434;SDS011;27177;22.262;114.192;2023-01-24T20:39:56;33.15;;;17.00;;
41434;SDS011;27177;22.262;114.192;2023-01-24T20:42:24;39.80;;;19.52;;
41434;SDS011;27177;22.262;114.192;2023-01-24T20:44:50;36.80;;;17.90;;
41434;SDS011;27177;22.262;114.192;2023-01-24T20:47:17;40.80;;;18.13;;
41434;SDS011;27177;22.262;114.192;2023-01-24T20:49:45;37.53;;;18.17;;
41434;SDS011;27177;22.262;114.192;2023-01-24T20:52:11;39.28;;;17.23;;
41434;SDS011;27177;22.262;114.192;2023-01-24T20:54:39;36.92;;;17.38;;
41434;SDS011;27177;22.262;114.192;2023-01-24T20:57:06;37.70;;;16.65;;
41434;SDS011;27177;22.262;114.192;2023-01-24T20:59:33;32.75;;;17.20;;
41434;SDS011;27177;22.262;114.192;2023-01-24T21:01:59;39.95;;;17.45;;
41434;SDS011;27177;22.262;114.192;2023-01-24T21:04:26;35.67;;;17.58;;
41434;SDS011;27177;22.262;114.192;2023-01-24T21:06:53;39.45;;;18.13;;
41434;SDS011;27177;22.262;114.192;2023-01-24T21:09:20;37.67;;;17.75;;
41434;SDS011;27177;22.262;114.192;2023-01-24T21:11:48;36.83;;;18.35;;
41434;SDS011;27177;22.262;114.192;2023-01-24T21:14:15;38.13;;;17.20;;
41434;SDS011;27177;22.262;114.192;2023-01-24T21:16:44;38.15;;;17.40;;
41434;SDS011;27177;22.262;114.192;2023-01-24T21:19:12;41.35;;;16.90;;
41434;SDS011;27177;22.262;114.192;2023-01-24T21:21:43;41.90;;;17.85;;
41434;SDS011;27177;22.262;114.192;2023-01-24T21:24:12;39.28;;;17.13;;
41434;SDS011;27177;22.262;114.192;2023-01-24T21:26:44;42.20;;;18.45;;
41434;SDS011;27177;22.262;114.192;2023-01-24T21:29:11;38.50;;;16.88;;
41434;SDS011;27177;22.262;114.192;2023-01-24T21:31:44;35.13;;;15.88;;